createdAt,value
2019-05-03T00:02:33.256Z,2.90
2019-05-03T00:05:21.994Z,4.80
2019-05-03T00:07:54.042Z,3.00
2019-05-03T00:10:23.842Z,2.70
2019-05-03T00:12:54.003Z,2.43
2019-05-03T00:15:39.518Z,2.50
2019-05-03T00:18:09.211Z,3.00
2019-05-03T00:20:38.908Z,2.57
2019-05-03T00:23:08.683Z,2.30
2019-05-03T00:25:38.412Z,2.83
2019-05-03T00:28:08.043Z,2.47
2019-05-03T00:30:38.023Z,2.40
2019-05-03T00:33:07.780Z,2.27
2019-05-03T00:35:58.023Z,2.33
2019-05-03T00:38:27.710Z,2.43
2019-05-03T00:40:57.451Z,3.20
2019-05-03T00:43:27.098Z,3.13
2019-05-03T00:45:56.965Z,2.77
2019-05-03T00:48:26.654Z,2.33
2019-05-03T00:50:56.350Z,2.77
2019-05-03T00:53:26.796Z,3.23
2019-05-03T00:55:56.832Z,3.00
2019-05-03T00:58:26.538Z,4.10
2019-05-03T01:00:56.344Z,2.67
2019-05-03T01:03:26.383Z,4.30
2019-05-03T01:05:56.048Z,2.47
2019-05-03T01:08:25.924Z,3.10
2019-05-03T01:10:55.549Z,3.33
2019-05-03T01:13:25.443Z,2.83
2019-05-03T01:16:06.233Z,3.60
2019-05-03T01:18:36.335Z,2.77
2019-05-03T01:21:06.290Z,4.70
2019-05-03T01:23:36.036Z,3.23
2019-05-03T01:26:05.806Z,3.00
2019-05-03T01:28:35.639Z,3.57
2019-05-03T01:31:05.329Z,3.80
2019-05-03T01:33:34.955Z,3.90
2019-05-03T01:36:04.953Z,4.80
2019-05-03T01:38:34.666Z,3.90
2019-05-03T01:41:04.347Z,3.23
2019-05-03T01:43:34.109Z,3.10
2019-05-03T01:46:03.993Z,6.63
2019-05-03T01:49:07.576Z,3.93
2019-05-03T01:52:05.047Z,4.90
2019-05-03T01:54:34.732Z,4.77
2019-05-03T01:57:04.783Z,3.20
2019-05-03T01:59:34.536Z,4.43
2019-05-03T02:02:27.457Z,6.60
2019-05-03T02:05:25.167Z,4.30
2019-05-03T02:07:54.764Z,5.17
2019-05-03T02:10:25.200Z,4.40
2019-05-03T02:12:54.840Z,7.03
2019-05-03T02:15:24.598Z,3.70
2019-05-03T02:17:54.352Z,3.90
2019-05-03T02:20:24.090Z,4.50
2019-05-03T02:22:53.796Z,3.80
2019-05-03T02:25:23.588Z,3.50
2019-05-03T02:27:53.469Z,5.97
2019-05-03T02:30:24.919Z,3.97
2019-05-03T02:32:54.516Z,3.53
2019-05-03T02:35:24.373Z,4.20
2019-05-03T02:37:54.705Z,4.90
2019-05-03T02:40:25.071Z,4.60
2019-05-03T02:43:11.435Z,4.13
2019-05-03T02:45:51.148Z,4.97
2019-05-03T02:48:28.206Z,5.03
2019-05-03T02:50:57.848Z,5.97
2019-05-03T02:53:27.490Z,6.43
2019-05-03T02:56:13.035Z,4.97
2019-05-03T02:58:28.648Z,4.43
2019-05-03T03:01:00.487Z,4.43
2019-05-03T03:03:31.190Z,4.30
2019-05-03T03:06:06.373Z,4.30
2019-05-03T03:08:36.901Z,5.70
2019-05-03T03:11:07.660Z,6.27
2019-05-03T03:13:39.648Z,7.20
2019-05-03T03:16:10.331Z,4.40
2019-05-03T03:18:41.285Z,4.60
2019-05-03T03:21:16.421Z,6.60
2019-05-03T03:24:17.080Z,5.30
2019-05-03T03:26:50.605Z,8.27
2019-05-03T03:29:25.364Z,5.33
2019-05-03T03:32:18.784Z,4.60
2019-05-03T03:35:03.182Z,6.13
2019-05-03T03:37:30.383Z,5.17
2019-05-03T03:40:00.168Z,7.73
2019-05-03T03:42:31.295Z,4.20
2019-05-03T03:45:05.799Z,7.23
2019-05-03T03:47:38.648Z,4.73
2019-05-03T03:50:08.628Z,7.07
2019-05-03T03:52:40.645Z,4.50
2019-05-03T03:55:11.119Z,4.70
2019-05-03T03:57:42.096Z,5.87
2019-05-03T04:00:11.848Z,4.93
2019-05-03T04:02:41.592Z,5.60
2019-05-03T04:05:11.987Z,5.70
2019-05-03T04:07:41.882Z,5.53
2019-05-03T04:10:12.030Z,7.00
2019-05-03T04:12:45.478Z,8.27
2019-05-03T04:15:26.277Z,6.17
2019-05-03T04:18:12.245Z,7.30
2019-05-03T04:20:42.167Z,10.03
2019-05-03T04:23:11.935Z,10.27
2019-05-03T04:25:41.739Z,10.63
2019-05-03T04:28:11.795Z,10.17
2019-05-03T04:30:41.717Z,12.27
2019-05-03T04:33:11.322Z,9.40
2019-05-03T04:35:41.122Z,10.27
2019-05-03T04:38:10.845Z,12.83
2019-05-03T04:40:40.495Z,15.17
2019-05-03T04:43:10.117Z,13.13
2019-05-03T04:45:39.887Z,14.40
2019-05-03T04:48:09.800Z,16.20
2019-05-03T04:50:39.530Z,14.90
2019-05-03T04:53:09.312Z,15.60
2019-05-03T04:55:39.310Z,20.50
2019-05-03T04:58:09.152Z,14.10
2019-05-03T05:00:39.020Z,16.93
2019-05-03T05:03:09.242Z,21.93
2019-05-03T05:05:38.761Z,21.17
2019-05-03T05:08:08.459Z,19.87
2019-05-03T05:10:38.178Z,22.63
2019-05-03T05:13:07.911Z,22.50
2019-05-03T05:15:37.693Z,22.30
2019-05-03T05:18:26.512Z,23.83
2019-05-03T05:21:04.627Z,18.60
2019-05-03T05:23:35.345Z,21.03
2019-05-03T05:26:14.469Z,23.70
2019-05-03T05:28:51.947Z,18.70
2019-05-03T05:31:22.100Z,22.83
2019-05-03T05:33:51.846Z,22.10
2019-05-03T05:36:21.595Z,26.23
2019-05-03T05:38:51.271Z,25.13
2019-05-03T05:41:20.934Z,21.73
2019-05-03T05:43:50.671Z,22.40
2019-05-03T05:46:22.168Z,23.50
2019-05-03T05:48:52.494Z,21.27
2019-05-03T05:51:22.196Z,23.30
2019-05-03T05:53:51.942Z,22.23
2019-05-03T05:56:37.118Z,24.53
2019-05-03T05:59:14.878Z,27.97
2019-05-03T06:02:06.435Z,35.63
2019-05-03T06:04:36.678Z,25.70
2019-05-03T06:07:24.822Z,25.07
2019-05-03T06:10:14.730Z,30.23
2019-05-03T06:12:49.732Z,25.87
2019-05-03T06:15:36.548Z,27.57
2019-05-03T06:18:11.255Z,28.60
2019-05-03T06:20:59.886Z,28.13
2019-05-03T06:23:45.051Z,30.97
2019-05-03T06:26:36.736Z,37.13
2019-05-03T06:29:06.847Z,30.80
2019-05-03T06:31:45.613Z,31.77
2019-05-03T06:34:15.328Z,36.00
2019-05-03T06:36:46.675Z,38.10
2019-05-03T06:39:16.336Z,33.23
2019-05-03T06:41:46.475Z,32.07
2019-05-03T06:44:19.142Z,37.50
2019-05-03T06:46:48.539Z,39.27
2019-05-03T06:49:18.638Z,55.00
2019-05-03T06:51:49.829Z,39.60
2019-05-03T06:54:20.676Z,36.47
2019-05-03T06:56:50.939Z,38.87
2019-05-03T06:59:35.882Z,37.87
2019-05-03T07:02:16.734Z,43.83
2019-05-03T07:04:48.155Z,50.70
2019-05-03T07:07:45.800Z,47.30
2019-05-03T07:10:27.684Z,51.97
2019-05-03T07:13:01.713Z,41.83
2019-05-03T07:15:31.318Z,44.27
2019-05-03T07:18:01.163Z,42.90
2019-05-03T07:20:35.225Z,48.17
2019-05-03T07:23:04.475Z,45.23
2019-05-03T07:25:34.456Z,49.17
2019-05-03T07:28:04.470Z,53.10
2019-05-03T07:30:35.237Z,49.70
2019-05-03T07:33:10.158Z,48.53
2019-05-03T07:35:39.844Z,45.70
2019-05-03T07:38:10.114Z,45.70
2019-05-03T07:40:39.803Z,46.50
2019-05-03T07:43:09.589Z,47.87
2019-05-03T07:45:39.467Z,40.83
2019-05-03T07:48:09.186Z,42.03
2019-05-03T07:50:38.955Z,45.80
2019-05-03T07:53:08.594Z,46.70
2019-05-03T07:56:08.995Z,45.57
2019-05-03T07:58:39.180Z,45.20
2019-05-03T08:01:14.922Z,45.60
2019-05-03T08:03:45.249Z,42.10
2019-05-03T08:06:15.091Z,40.47
2019-05-03T08:08:45.485Z,46.60
2019-05-03T08:11:15.889Z,45.87
2019-05-03T08:13:45.425Z,43.90
2019-05-03T08:16:16.044Z,48.50
2019-05-03T08:18:45.867Z,46.90
2019-05-03T08:21:15.885Z,46.27
2019-05-03T08:23:45.528Z,43.73
2019-05-03T08:26:15.466Z,45.90
2019-05-03T08:28:45.111Z,35.67
2019-05-03T08:31:32.265Z,38.20
2019-05-03T08:34:35.708Z,39.90
2019-05-03T08:37:09.799Z,38.90
2019-05-03T08:39:39.436Z,41.10
2019-05-03T08:42:14.992Z,39.80
2019-05-03T08:44:45.335Z,35.60
2019-05-03T08:47:15.538Z,39.10
2019-05-03T08:49:45.329Z,35.20
2019-05-03T08:52:15.706Z,38.30
2019-05-03T08:54:48.982Z,39.80
2019-05-03T08:57:18.688Z,37.87
2019-05-03T08:59:48.394Z,31.43
2019-05-03T09:02:18.397Z,31.47
2019-05-03T09:04:48.289Z,38.17
2019-05-03T09:07:18.031Z,37.53
2019-05-03T09:10:05.526Z,38.90
2019-05-03T09:12:53.025Z,29.40
2019-05-03T09:15:24.536Z,39.23
2019-05-03T09:17:55.256Z,31.20
2019-05-03T09:20:25.161Z,31.27
2019-05-03T09:22:55.020Z,31.77
2019-05-03T09:25:24.874Z,32.33
2019-05-03T09:27:55.234Z,31.37
2019-05-03T09:30:25.218Z,28.90
2019-05-03T09:32:55.712Z,30.87
2019-05-03T09:35:32.604Z,28.87
2019-05-03T09:37:56.829Z,26.13
2019-05-03T09:40:26.489Z,22.40
2019-05-03T09:42:56.175Z,19.10
2019-05-03T09:45:25.941Z,19.27
2019-05-03T09:47:55.634Z,19.37
2019-05-03T09:50:25.268Z,19.90
2019-05-03T09:52:55.539Z,16.87
2019-05-03T09:55:39.999Z,17.63
2019-05-03T09:58:09.631Z,17.10
2019-05-03T10:00:39.374Z,15.07
2019-05-03T10:03:08.976Z,13.47
2019-05-03T10:05:38.616Z,13.13
2019-05-03T10:08:08.247Z,14.07
2019-05-03T10:10:55.379Z,15.30
2019-05-03T10:13:27.079Z,17.03
2019-05-03T10:15:56.342Z,17.60
2019-05-03T10:18:26.075Z,15.90
2019-05-03T10:20:56.254Z,12.80
2019-05-03T10:23:39.143Z,12.97
2019-05-03T10:26:08.988Z,13.40
2019-05-03T10:28:38.689Z,10.10
2019-05-03T10:31:08.501Z,11.57
2019-05-03T10:33:51.647Z,11.87
2019-05-03T10:36:21.248Z,14.70
2019-05-03T10:38:51.054Z,11.63
2019-05-03T10:41:20.761Z,10.57
2019-05-03T10:43:50.570Z,12.13
2019-05-03T10:46:20.591Z,9.63
2019-05-03T10:48:50.238Z,8.80
2019-05-03T10:51:20.095Z,7.73
2019-05-03T10:53:55.095Z,8.30
2019-05-03T10:56:49.576Z,8.43
2019-05-03T10:59:20.447Z,9.53
2019-05-03T11:02:12.237Z,10.50
2019-05-03T11:04:43.684Z,9.67
2019-05-03T11:07:14.885Z,11.43
2019-05-03T11:09:49.606Z,15.40
2019-05-03T11:12:16.263Z,11.57
2019-05-03T11:14:46.115Z,12.03
2019-05-03T11:17:16.048Z,10.50
2019-05-03T11:19:45.621Z,8.00
2019-05-03T11:22:15.637Z,12.20
2019-05-03T11:24:45.542Z,6.53
2019-05-03T11:27:20.042Z,8.90
2019-05-03T11:29:49.673Z,8.50
2019-05-03T11:32:35.254Z,8.70
2019-05-03T11:35:16.162Z,6.53
2019-05-03T11:37:55.767Z,8.10
2019-05-03T11:40:25.516Z,6.77
2019-05-03T11:42:57.130Z,5.20
2019-05-03T11:45:26.853Z,4.83
2019-05-03T11:47:56.487Z,4.10
2019-05-03T11:50:26.235Z,4.87
2019-05-03T11:52:55.905Z,5.13
2019-05-03T11:55:26.789Z,6.30
2019-05-03T11:57:56.774Z,5.43
2019-05-03T12:00:31.717Z,5.60
2019-05-03T12:03:07.340Z,6.53
2019-05-03T12:05:37.022Z,11.20
2019-05-03T12:08:06.749Z,7.60
2019-05-03T12:10:52.883Z,9.17
2019-05-03T12:13:15.587Z,9.77
2019-05-03T12:15:44.698Z,9.87
2019-05-03T12:18:16.275Z,9.30
2019-05-03T12:20:47.560Z,9.90
2019-05-03T12:23:18.251Z,14.70
2019-05-03T12:25:49.393Z,13.23
2019-05-03T12:28:19.461Z,14.93
2019-05-03T12:30:49.305Z,19.83
2019-05-03T12:33:19.084Z,20.77
2019-05-03T12:35:48.935Z,22.57
2019-05-03T12:38:18.667Z,25.20
2019-05-03T12:40:48.456Z,33.43
2019-05-03T12:43:18.227Z,34.63
2019-05-03T12:45:47.875Z,30.07
2019-05-03T12:48:17.645Z,38.30
2019-05-03T12:50:48.345Z,30.83
2019-05-03T12:53:18.219Z,34.80
2019-05-03T12:55:47.897Z,29.00
2019-05-03T12:58:17.938Z,27.97
2019-05-03T13:01:05.249Z,31.00
2019-05-03T13:03:41.542Z,26.40
2019-05-03T13:06:11.245Z,30.20
2019-05-03T13:08:45.657Z,29.93
2019-05-03T13:11:15.039Z,30.90
2019-05-03T13:13:45.312Z,29.80
2019-05-03T13:16:18.326Z,24.33
2019-05-03T13:18:47.996Z,22.43
2019-05-03T13:21:17.680Z,19.77
2019-05-03T13:23:47.397Z,16.77
2019-05-03T13:26:17.087Z,19.73
2019-05-03T13:28:46.864Z,16.43
2019-05-03T13:31:16.470Z,15.97
2019-05-03T13:33:46.187Z,15.13
2019-05-03T13:36:15.955Z,16.60
2019-05-03T13:38:45.675Z,18.03
2019-05-03T13:41:15.392Z,22.13
2019-05-03T13:43:45.443Z,16.87
2019-05-03T13:46:15.754Z,12.97
2019-05-03T13:48:48.942Z,13.93
2019-05-03T13:51:16.947Z,11.97
2019-05-03T13:53:46.795Z,12.07
2019-05-03T13:56:16.825Z,12.43
2019-05-03T13:58:46.504Z,12.37
2019-05-03T14:01:16.474Z,13.77
2019-05-03T14:03:46.054Z,15.57
2019-05-03T14:06:15.756Z,16.70
2019-05-03T14:08:45.599Z,15.47
2019-05-03T14:11:15.625Z,14.97
2019-05-03T14:13:45.304Z,15.80
2019-05-03T14:16:15.013Z,18.03
2019-05-03T14:18:47.216Z,15.50
2019-05-03T14:21:31.703Z,17.27
2019-05-03T14:24:10.725Z,16.87
2019-05-03T14:26:41.427Z,18.67
2019-05-03T14:29:11.317Z,17.10
2019-05-03T14:31:40.988Z,22.93
2019-05-03T14:34:10.813Z,17.40
2019-05-03T14:36:40.447Z,18.43
2019-05-03T14:39:10.668Z,20.67
2019-05-03T14:41:40.371Z,17.00
2019-05-03T14:44:10.050Z,18.73
2019-05-03T14:46:40.134Z,18.10
2019-05-03T14:49:09.994Z,15.57
2019-05-03T14:51:39.780Z,13.73
2019-05-03T14:54:10.047Z,15.43
2019-05-03T14:56:48.134Z,20.10
2019-05-03T14:59:39.786Z,19.07
2019-05-03T15:02:15.585Z,15.67
2019-05-03T15:04:46.363Z,16.20
2019-05-03T15:07:16.693Z,15.23
2019-05-03T15:09:46.288Z,16.67
2019-05-03T15:12:16.022Z,17.57
2019-05-03T15:14:47.052Z,17.90
2019-05-03T15:17:16.774Z,18.20
2019-05-03T15:19:46.415Z,21.07
2019-05-03T15:22:16.176Z,15.60
2019-05-03T15:24:45.772Z,20.40
2019-05-03T15:27:15.501Z,18.40
2019-05-03T15:29:45.115Z,21.50
2019-05-03T15:32:19.292Z,15.20
2019-05-03T15:34:49.520Z,16.67
2019-05-03T15:37:19.453Z,18.63
2019-05-03T15:39:49.088Z,21.63
2019-05-03T15:42:20.103Z,17.70
2019-05-03T15:45:08.345Z,18.67
2019-05-03T15:47:46.127Z,17.10
2019-05-03T15:50:15.891Z,21.80
2019-05-03T15:52:45.443Z,18.60
2019-05-03T15:55:15.297Z,18.63
2019-05-03T15:57:45.305Z,14.73
2019-05-03T16:00:16.775Z,20.20
2019-05-03T16:02:46.452Z,18.67
2019-05-03T16:05:16.074Z,17.10
2019-05-03T16:07:45.942Z,18.10
2019-05-03T16:10:15.931Z,19.37
2019-05-03T16:12:45.645Z,20.47
2019-05-03T16:15:15.616Z,20.83
2019-05-03T16:17:45.808Z,19.23
2019-05-03T16:20:16.133Z,17.17
2019-05-03T16:22:46.652Z,20.20
2019-05-03T16:25:16.616Z,19.60
2019-05-03T16:28:05.301Z,21.80
2019-05-03T16:30:45.411Z,23.67
2019-05-03T16:33:26.232Z,22.30
2019-05-03T16:35:47.370Z,17.63
2019-05-03T16:38:17.071Z,19.80
2019-05-03T16:40:46.746Z,22.77
2019-05-03T16:43:16.427Z,18.90
2019-05-03T16:45:46.064Z,21.87
2019-05-03T16:48:18.210Z,21.50
2019-05-03T16:50:46.999Z,19.20
2019-05-03T16:53:16.866Z,18.00
2019-05-03T16:55:46.545Z,19.37
2019-05-03T16:58:17.057Z,22.93
2019-05-03T17:00:46.922Z,21.80
2019-05-03T17:03:19.309Z,20.93
2019-05-03T17:06:00.201Z,19.57
2019-05-03T17:08:35.342Z,17.83
2019-05-03T17:11:07.536Z,23.03
2019-05-03T17:13:37.112Z,22.43
2019-05-03T17:16:07.540Z,18.33
2019-05-03T17:18:37.448Z,22.03
2019-05-03T17:21:07.539Z,22.50
2019-05-03T17:23:37.292Z,18.10
2019-05-03T17:26:06.967Z,19.90
2019-05-03T17:28:36.912Z,21.30
2019-05-03T17:31:06.547Z,18.63
2019-05-03T17:33:36.130Z,16.97
2019-05-03T17:36:06.021Z,18.70
2019-05-03T17:38:36.699Z,21.40
2019-05-03T17:41:26.577Z,18.23
2019-05-03T17:44:15.107Z,18.23
2019-05-03T17:46:45.380Z,22.07
2019-05-03T17:49:15.131Z,17.77
2019-05-03T17:52:09.601Z,16.93
2019-05-03T17:55:01.264Z,19.90
2019-05-03T17:57:48.668Z,28.60
2019-05-03T18:00:49.281Z,20.80
2019-05-03T18:03:20.215Z,18.47
2019-05-03T18:06:01.294Z,21.17
2019-05-03T18:08:44.603Z,21.37
2019-05-03T18:11:17.435Z,18.60
2019-05-03T18:13:47.054Z,18.63
2019-05-03T18:16:17.126Z,20.97
2019-05-03T18:18:47.015Z,20.10
2019-05-03T18:21:16.683Z,19.07
2019-05-03T18:23:50.288Z,20.20
2019-05-03T18:26:19.952Z,22.13
2019-05-03T18:28:49.694Z,23.70
2019-05-03T18:31:19.315Z,24.23
2019-05-03T18:33:49.067Z,24.47
2019-05-03T18:36:18.693Z,19.30
2019-05-03T18:38:48.641Z,22.77
2019-05-03T18:41:18.268Z,20.70
2019-05-03T18:43:59.263Z,23.17
2019-05-03T18:46:31.914Z,25.10
2019-05-03T18:49:01.709Z,22.53
2019-05-03T18:51:31.742Z,23.80
2019-05-03T18:54:01.341Z,25.17
2019-05-03T18:56:31.151Z,26.57
2019-05-03T18:59:01.370Z,25.13
2019-05-03T19:01:31.187Z,23.73
2019-05-03T19:04:08.648Z,27.00
2019-05-03T19:06:38.459Z,26.47
2019-05-03T19:09:31.444Z,29.83
2019-05-03T19:12:11.910Z,25.70
2019-05-03T19:14:41.555Z,27.47
2019-05-03T19:17:36.316Z,27.73
2019-05-03T19:20:09.343Z,31.13
2019-05-03T19:22:39.019Z,27.20
2019-05-03T19:25:10.247Z,27.00
2019-05-03T19:27:39.979Z,30.10
2019-05-03T19:30:10.336Z,33.30
2019-05-03T19:32:39.932Z,29.00
2019-05-03T19:35:09.891Z,28.70
2019-05-03T19:37:39.717Z,32.27
2019-05-03T19:40:09.623Z,27.67
2019-05-03T19:42:39.336Z,27.97
2019-05-03T19:45:09.340Z,31.33
2019-05-03T19:47:39.014Z,30.60
2019-05-03T19:50:09.240Z,29.97
2019-05-03T19:52:59.890Z,27.80
2019-05-03T19:55:29.525Z,31.07
2019-05-03T19:57:59.273Z,30.63
2019-05-03T20:00:37.874Z,26.20
2019-05-03T20:03:15.342Z,29.37
2019-05-03T20:05:59.070Z,33.33
2019-05-03T20:08:38.254Z,29.30
2019-05-03T20:11:17.572Z,24.60
2019-05-03T20:13:47.596Z,26.53
2019-05-03T20:16:17.191Z,28.27
2019-05-03T20:18:46.808Z,30.43
2019-05-03T20:21:16.423Z,22.33
2019-05-03T20:23:47.132Z,29.37
2019-05-03T20:26:16.934Z,23.43
2019-05-03T20:28:46.536Z,23.40
2019-05-03T20:31:16.377Z,22.17
2019-05-03T20:33:46.045Z,25.87
2019-05-03T20:36:15.826Z,23.97
2019-05-03T20:38:45.946Z,28.67
2019-05-03T20:41:15.636Z,28.40
2019-05-03T20:44:07.015Z,24.87
2019-05-03T20:47:04.591Z,27.23
2019-05-03T20:49:35.573Z,30.03
2019-05-03T20:52:05.422Z,26.13
2019-05-03T20:54:35.130Z,25.30
2019-05-03T20:57:05.385Z,26.93
2019-05-03T20:59:42.962Z,25.43
2019-05-03T21:02:06.591Z,25.00
2019-05-03T21:04:36.273Z,23.77
2019-05-03T21:07:06.002Z,20.93
2019-05-03T21:09:35.621Z,23.67
2019-05-03T21:12:05.352Z,23.63
2019-05-03T21:14:35.168Z,24.00
2019-05-03T21:20:01.747Z,20.27
2019-05-03T21:22:35.932Z,22.07
2019-05-03T21:25:24.885Z,23.90
2019-05-03T21:27:55.535Z,25.73
2019-05-03T21:30:25.400Z,26.43
2019-05-03T21:32:55.066Z,25.53
2019-05-03T21:35:38.682Z,23.03
2019-05-03T21:37:56.591Z,27.37
2019-05-03T21:40:26.404Z,24.90
2019-05-03T21:42:56.046Z,25.83
2019-05-03T21:45:31.175Z,31.70
2019-05-03T21:48:24.841Z,25.93
2019-05-03T21:50:54.245Z,25.10
2019-05-03T21:53:25.091Z,27.73
2019-05-03T21:55:54.913Z,32.20
2019-05-03T21:58:25.047Z,28.57
2019-05-03T22:01:05.173Z,31.17
2019-05-03T22:03:35.495Z,27.50
2019-05-03T22:06:05.281Z,28.90
2019-05-03T22:08:35.177Z,35.90
2019-05-03T22:13:40.529Z,28.93
2019-05-03T22:16:36.108Z,35.77
2019-05-03T22:19:05.819Z,32.77
2019-05-03T22:21:51.413Z,28.00
2019-05-03T22:24:32.064Z,29.97
2019-05-03T22:27:04.887Z,30.97
2019-05-03T22:29:35.857Z,31.30
2019-05-03T22:32:05.515Z,30.97
2019-05-03T22:34:35.218Z,29.87
2019-05-03T22:37:04.854Z,27.90
2019-05-03T22:39:34.563Z,29.10
2019-05-03T22:42:04.629Z,28.00
2019-05-03T22:44:35.616Z,32.20
2019-05-03T22:47:05.657Z,37.00
2019-05-03T22:49:37.270Z,28.30
2019-05-03T22:52:06.800Z,33.10
2019-05-03T22:54:36.560Z,33.90
2019-05-03T22:57:06.249Z,33.90
2019-05-03T22:59:35.963Z,31.43
2019-05-03T23:02:05.691Z,35.33
2019-05-03T23:04:35.725Z,34.70
2019-05-03T23:07:05.716Z,34.40
2019-05-03T23:09:35.347Z,34.50
2019-05-03T23:12:05.510Z,36.60
2019-05-03T23:14:35.155Z,38.73
2019-05-03T23:17:05.589Z,36.30
2019-05-03T23:19:36.833Z,35.23
2019-05-03T23:22:17.766Z,34.87
2019-05-03T23:24:47.378Z,36.43
2019-05-03T23:27:17.087Z,41.17
2019-05-03T23:29:46.647Z,33.93
2019-05-03T23:32:16.360Z,34.03
2019-05-03T23:34:46.497Z,37.70
2019-05-03T23:37:16.148Z,32.40
2019-05-03T23:39:45.728Z,31.57
2019-05-03T23:42:15.617Z,33.00
2019-05-03T23:44:45.762Z,29.80
2019-05-03T23:47:34.470Z,29.90
2019-05-03T23:50:05.561Z,27.53
2019-05-03T23:52:37.510Z,26.97
2019-05-03T23:55:16.495Z,27.27
2019-05-03T23:57:46.168Z,28.37
